Weldon, Louisiana
Current Conditions -  °F | °C
As of 6:15 PM on Sunday 23 Nov 2014 (Local Time) from KRSN Reporting Station
Clear Clear  
Wind Chill: 64°   Ceiling: Unl
Heat Index: 64°   Visibility: 10mi
Dew Point: 60°   Wind: 10mph
Humidity: 87%   Direction: 200°SSW
Pressure: 29.52"   Gusts: NA
Location:  32.8225°N, 92.6234°W
Report Text: KRSN 240015Z AUTO 20009KT 10SM CLR 18/16 A2952 RMK AO2 P0002 T01790157
Loading
Personal Weather Stations






























Interactive Weather Map New forecast layout! Learn more

10-Day Weather Forecast

Advertisements
Track Severe Weather on mobile